createdAt,value
2023-05-02T00:00:47.050Z,82.91
2023-05-02T00:05:48.823Z,83.27
2023-05-02T00:10:50.541Z,83.82
2023-05-02T00:15:52.152Z,84.02
2023-05-02T00:20:53.782Z,83.99
2023-05-02T00:25:55.503Z,84.15
2023-05-02T00:30:57.157Z,83.33
2023-05-02T00:35:58.810Z,83.33
2023-05-02T00:41:00.539Z,83.21
2023-05-02T00:46:02.517Z,82.67
2023-05-02T00:51:08.708Z,82.94
2023-05-02T00:56:10.438Z,83.64
2023-05-02T01:01:30.497Z,83.38
2023-05-02T01:07:13.796Z,83.22
2023-05-02T01:12:29.106Z,83.62
2023-05-02T01:17:33.056Z,83.55
2023-05-02T01:22:38.032Z,82.53
2023-05-02T01:28:14.279Z,81.43
2023-05-02T01:33:17.744Z,81.76
2023-05-02T01:38:21.084Z,83.36
2023-05-02T01:43:26.333Z,80.93
2023-05-02T01:48:28.898Z,81.39
2023-05-02T01:53:34.262Z,80.70
2023-05-02T01:58:38.497Z,81.15
2023-05-02T02:03:40.412Z,81.48
2023-05-02T02:08:42.371Z,81.50
2023-05-02T02:13:51.048Z,81.10
2023-05-02T02:18:56.518Z,80.17
2023-05-02T02:24:03.120Z,80.92
2023-05-02T02:29:05.120Z,80.49
2023-05-02T02:34:07.464Z,80.22
2023-05-02T02:39:46.600Z,79.98
2023-05-02T02:44:56.951Z,80.16
2023-05-02T02:50:22.675Z,80.32
2023-05-02T02:55:36.758Z,80.19
2023-05-02T03:00:39.521Z,78.93
2023-05-02T03:05:43.789Z,77.93
2023-05-02T03:10:45.663Z,77.74
2023-05-02T03:15:58.806Z,77.73
2023-05-02T03:21:04.059Z,76.72
2023-05-02T03:26:06.263Z,77.44
2023-05-02T03:31:09.433Z,78.14
2023-05-02T03:36:14.938Z,78.51
2023-05-02T03:41:17.477Z,78.62
2023-05-02T03:46:19.750Z,78.61
2023-05-02T03:51:21.527Z,79.40
2023-05-02T03:56:26.727Z,79.81
2023-05-02T04:02:03.581Z,80.00
2023-05-02T04:07:18.397Z,79.98
2023-05-02T04:12:23.989Z,80.22
2023-05-02T04:17:27.493Z,80.75
2023-05-02T04:22:29.220Z,80.77
2023-05-02T04:27:34.986Z,80.97
2023-05-02T04:32:38.058Z,80.96
2023-05-02T04:37:40.659Z,80.49
2023-05-02T04:42:42.748Z,81.06
2023-05-02T04:47:49.433Z,81.64
2023-05-02T04:52:51.230Z,80.83
2023-05-02T04:57:53.022Z,81.03
2023-05-02T05:02:55.402Z,80.57
2023-05-02T05:07:57.176Z,81.15
2023-05-02T05:13:00.676Z,79.63
2023-05-02T05:18:03.175Z,80.11
2023-05-02T05:23:04.936Z,81.01
2023-05-02T05:28:06.677Z,78.69
2023-05-02T05:33:11.015Z,79.22
2023-05-02T05:38:13.109Z,78.92
2023-05-02T05:43:17.723Z,78.52
2023-05-02T05:48:20.122Z,78.71
2023-05-02T05:53:21.973Z,77.25
2023-05-02T05:58:24.894Z,78.40
2023-05-02T06:03:30.120Z,77.52
2023-05-02T06:08:32.080Z,75.17
2023-05-02T06:13:33.822Z,72.56
2023-05-02T06:18:35.846Z,72.87
2023-05-02T06:23:40.234Z,72.27
2023-05-02T06:28:42.050Z,70.48
2023-05-02T06:33:43.759Z,69.09
2023-05-02T06:38:45.384Z,69.05
2023-05-02T06:43:47.014Z,69.83
2023-05-02T06:48:48.866Z,68.73
2023-05-02T06:53:51.054Z,71.47
2023-05-02T06:58:52.717Z,71.19
2023-05-02T07:03:54.560Z,70.91
2023-05-02T07:08:56.214Z,70.50
2023-05-02T07:13:57.962Z,72.51
2023-05-02T07:19:00.223Z,71.96
2023-05-02T07:24:01.890Z,73.18
2023-05-02T07:29:03.552Z,74.27
2023-05-02T07:34:05.191Z,73.33
2023-05-02T07:39:06.892Z,74.34
2023-05-02T07:44:08.938Z,74.23
2023-05-02T07:49:10.735Z,70.13
2023-05-02T07:54:22.077Z,66.23
2023-05-02T07:59:23.702Z,61.86
2023-05-02T08:04:26.116Z,65.31
2023-05-02T08:09:27.833Z,66.39
2023-05-02T08:14:29.518Z,61.72
2023-05-02T08:19:32.015Z,54.82
2023-05-02T08:24:36.865Z,52.38
2023-05-02T08:29:38.556Z,53.82
2023-05-02T08:34:40.487Z,61.83
2023-05-02T08:39:42.259Z,68.09
2023-05-02T08:44:43.876Z,69.37
2023-05-02T08:49:46.573Z,68.48
2023-05-02T08:54:51.588Z,64.33
2023-05-02T08:59:53.282Z,63.20
2023-05-02T09:04:59.881Z,64.97
2023-05-02T09:10:02.117Z,66.16
2023-05-02T09:15:29.858Z,65.32
2023-05-02T09:20:40.682Z,60.34
2023-05-02T09:25:42.463Z,62.34
2023-05-02T09:30:44.159Z,61.06
2023-05-02T09:35:55.882Z,60.29
2023-05-02T09:40:57.650Z,61.50
2023-05-02T09:46:01.897Z,61.36
2023-05-02T09:51:04.867Z,60.93
2023-05-02T09:56:06.967Z,63.65
2023-05-02T10:01:14.928Z,66.15
2023-05-02T10:06:19.229Z,65.83
2023-05-02T10:11:21.878Z,65.61
2023-05-02T10:16:29.122Z,68.82
2023-05-02T10:21:32.532Z,66.03
2023-05-02T10:26:35.431Z,62.93
2023-05-02T10:31:39.802Z,61.27
2023-05-02T10:36:41.556Z,66.53
2023-05-02T10:41:44.323Z,67.04
2023-05-02T10:46:46.060Z,66.80
2023-05-02T10:51:47.811Z,68.06
2023-05-02T10:57:05.600Z,67.68
2023-05-02T11:02:27.979Z,66.35
2023-05-02T11:07:34.521Z,67.93
2023-05-02T11:12:49.179Z,68.60
2023-05-02T11:18:03.963Z,63.72
2023-05-02T11:23:21.784Z,63.61
2023-05-02T11:28:40.329Z,64.22
2023-05-02T11:33:41.939Z,60.55
2023-05-02T11:38:44.492Z,57.20
2023-05-02T11:43:47.141Z,55.78
2023-05-02T11:48:48.839Z,60.34
2023-05-02T11:53:50.678Z,63.41
2023-05-02T11:59:03.501Z,62.87
2023-05-02T12:04:07.606Z,57.18
2023-05-02T12:09:16.203Z,55.41
2023-05-02T12:14:17.905Z,58.89
2023-05-02T12:19:19.664Z,58.19
2023-05-02T12:24:21.543Z,54.10
2023-05-02T12:29:37.839Z,57.63
2023-05-02T12:34:40.150Z,57.44
2023-05-02T12:39:43.061Z,55.83
2023-05-02T12:44:46.593Z,60.29
2023-05-02T12:49:52.776Z,63.18
2023-05-02T12:54:54.426Z,62.44
2023-05-02T12:59:56.132Z,64.17
2023-05-02T13:04:57.763Z,60.82
2023-05-02T13:09:59.506Z,60.16
2023-05-02T13:15:01.316Z,60.44
2023-05-02T13:20:03.656Z,60.09
2023-05-02T13:25:07.097Z,62.13
2023-05-02T13:30:10.207Z,59.68
2023-05-02T13:35:14.114Z,61.33
2023-05-02T13:40:15.860Z,61.55
2023-05-02T13:45:17.933Z,60.51
2023-05-02T13:50:19.563Z,61.42
2023-05-02T13:55:21.257Z,61.84
2023-05-02T14:00:23.034Z,63.40
2023-05-02T14:05:24.624Z,64.54
2023-05-02T14:10:26.288Z,64.94
2023-05-02T14:15:28.169Z,63.91
2023-05-02T14:20:29.836Z,60.44
2023-05-02T14:25:31.445Z,61.01
2023-05-02T14:30:33.301Z,61.94
2023-05-02T14:35:34.932Z,62.05
2023-05-02T14:40:36.782Z,64.53
2023-05-02T14:45:38.410Z,67.23
2023-05-02T14:50:40.998Z,68.36
2023-05-02T14:55:42.709Z,74.84
2023-05-02T15:00:44.317Z,78.25
2023-05-02T15:05:46.133Z,79.78
2023-05-02T15:10:47.784Z,80.49
2023-05-02T15:15:49.549Z,81.89
2023-05-02T15:20:51.208Z,83.23
2023-05-02T15:25:52.823Z,83.61
2023-05-02T15:30:54.489Z,82.60
2023-05-02T15:36:00.706Z,78.95
2023-05-02T15:41:02.374Z,75.26
2023-05-02T15:46:04.091Z,74.92
2023-05-02T15:51:06.361Z,75.46
2023-05-02T15:56:12.163Z,76.36
2023-05-02T16:01:13.788Z,77.21
2023-05-02T16:06:16.636Z,77.83
2023-05-02T16:11:18.296Z,78.19
2023-05-02T16:16:19.973Z,78.79
2023-05-02T16:21:21.734Z,79.39
2023-05-02T16:26:23.410Z,79.63
2023-05-02T16:31:25.164Z,79.41
2023-05-02T16:36:27.899Z,77.81
2023-05-02T16:41:29.529Z,75.84
2023-05-02T16:46:31.676Z,75.98
2023-05-02T16:51:33.454Z,76.25
2023-05-02T16:56:35.063Z,76.42
2023-05-02T17:01:36.821Z,76.44
2023-05-02T17:06:39.192Z,76.42
2023-05-02T17:11:41.388Z,77.22
2023-05-02T17:16:43.101Z,77.60
2023-05-02T17:21:44.768Z,77.20
2023-05-02T17:26:46.580Z,76.65
2023-05-02T17:31:48.273Z,75.73
2023-05-02T17:36:49.883Z,76.07
2023-05-02T17:41:51.491Z,74.71
2023-05-02T17:46:53.522Z,74.27
2023-05-02T17:51:55.286Z,74.56
2023-05-02T17:56:57.357Z,74.90
2023-05-02T18:01:58.997Z,75.11
2023-05-02T18:07:02.511Z,74.42
2023-05-02T18:12:06.214Z,74.07
2023-05-02T18:17:09.885Z,75.01
2023-05-02T18:22:11.882Z,74.09
2023-05-02T18:27:13.562Z,74.98
2023-05-02T18:32:15.602Z,74.90
2023-05-02T18:37:17.206Z,74.62
2023-05-02T18:42:18.840Z,74.96
2023-05-02T18:47:21.507Z,75.25
2023-05-02T18:52:23.135Z,74.99
2023-05-02T18:57:25.362Z,74.13
2023-05-02T19:02:27.411Z,73.35
2023-05-02T19:07:29.101Z,74.71
2023-05-02T19:12:31.038Z,75.25
2023-05-02T19:17:32.702Z,75.93
2023-05-02T19:22:34.776Z,75.23
2023-05-02T19:27:36.592Z,74.12
2023-05-02T19:32:38.276Z,74.09
2023-05-02T19:37:39.878Z,73.88
2023-05-02T19:42:41.525Z,74.15
2023-05-02T19:47:45.452Z,74.31
2023-05-02T19:52:47.247Z,74.92
2023-05-02T19:57:49.030Z,76.00
2023-05-02T20:02:51.586Z,75.75
2023-05-02T20:07:53.409Z,74.25
2023-05-02T20:12:55.019Z,74.93
2023-05-02T20:17:59.307Z,73.96
2023-05-02T20:23:00.962Z,72.13
2023-05-02T20:28:02.575Z,72.76
2023-05-02T20:33:14.009Z,72.24
2023-05-02T20:38:17.808Z,72.31
2023-05-02T20:43:19.944Z,73.68
2023-05-02T20:48:21.658Z,73.23
2023-05-02T20:53:24.001Z,74.08
2023-05-02T20:58:26.311Z,73.50
2023-05-02T21:03:28.116Z,74.90
2023-05-02T21:08:29.910Z,75.06
2023-05-02T21:13:31.537Z,74.15
2023-05-02T21:18:33.183Z,74.19
2023-05-02T21:23:35.004Z,74.26
2023-05-02T21:28:38.568Z,74.72
2023-05-02T21:33:41.573Z,74.08
2023-05-02T21:38:43.188Z,74.69
2023-05-02T21:43:45.202Z,74.84
2023-05-02T21:48:46.875Z,74.43
2023-05-02T21:53:48.623Z,74.17
2023-05-02T21:58:51.383Z,75.10
2023-05-02T22:03:53.049Z,76.43
2023-05-02T22:08:54.689Z,76.59
2023-05-02T22:13:56.428Z,77.00
2023-05-02T22:18:58.157Z,76.83
2023-05-02T22:23:59.782Z,75.69
2023-05-02T22:29:01.400Z,78.23
2023-05-02T22:34:03.018Z,76.47
2023-05-02T22:39:08.982Z,77.84
2023-05-02T22:44:11.103Z,79.20
2023-05-02T22:49:12.728Z,79.65
2023-05-02T22:54:15.226Z,78.64
2023-05-02T22:59:17.665Z,79.28
2023-05-02T23:04:19.357Z,81.01
2023-05-02T23:09:21.216Z,81.32
2023-05-02T23:14:23.480Z,80.64
2023-05-02T23:19:25.934Z,81.45
2023-05-02T23:24:27.844Z,80.87
2023-05-02T23:29:29.490Z,80.77
2023-05-02T23:34:31.473Z,81.17
2023-05-02T23:39:33.532Z,80.42
2023-05-02T23:44:35.170Z,80.24
2023-05-02T23:49:37.232Z,79.86
2023-05-02T23:54:38.853Z,80.47
2023-05-02T23:59:40.502Z,79.86
